createdAt,value
2024-04-09T00:01:42.237Z,1.90
2024-04-09T00:04:09.623Z,2.08
2024-04-09T00:06:37.280Z,1.52
2024-04-09T00:11:34.798Z,1.65
2024-04-09T00:14:05.548Z,1.90
2024-04-09T00:16:34.992Z,2.20
2024-04-09T00:19:02.682Z,1.92
2024-04-09T00:21:31.282Z,2.05
2024-04-09T00:23:59.677Z,1.83
2024-04-09T00:26:29.674Z,1.50
2024-04-09T00:28:57.240Z,2.33
2024-04-09T00:31:26.177Z,2.17
2024-04-09T00:33:54.116Z,1.90
2024-04-09T00:36:21.586Z,2.08
2024-04-09T00:38:49.304Z,1.80
2024-04-09T00:43:48.787Z,1.70
2024-04-09T00:46:17.247Z,1.77
2024-04-09T00:48:45.677Z,1.60
2024-04-09T00:51:16.132Z,1.70
2024-04-09T00:53:45.431Z,2.00
2024-04-09T00:56:14.081Z,1.73
2024-04-09T00:58:41.662Z,1.98
2024-04-09T01:01:14.597Z,1.73
2024-04-09T01:03:42.136Z,1.95
2024-04-09T01:06:10.658Z,1.70
2024-04-09T01:08:38.646Z,2.20
2024-04-09T01:11:06.156Z,1.60
2024-04-09T01:13:33.520Z,1.90
2024-04-09T01:16:02.494Z,1.73
2024-04-09T01:18:29.944Z,1.85
2024-04-09T01:20:57.249Z,1.60
2024-04-09T01:23:24.499Z,1.80
2024-04-09T01:25:51.906Z,1.75
2024-04-09T01:28:19.932Z,1.60
2024-04-09T01:30:47.982Z,1.98
2024-04-09T01:33:15.689Z,1.77
2024-04-09T01:35:44.196Z,1.50
2024-04-09T01:38:11.432Z,1.77
2024-04-09T01:40:38.923Z,1.42
2024-04-09T01:43:06.243Z,1.83
2024-04-09T01:45:34.142Z,2.00
2024-04-09T01:48:01.900Z,1.35
2024-04-09T01:50:29.140Z,1.60
2024-04-09T01:52:56.324Z,1.70
2024-04-09T01:55:24.026Z,1.77
2024-04-09T01:57:51.250Z,1.48
2024-04-09T02:00:22.741Z,1.50
2024-04-09T02:02:54.184Z,1.45
2024-04-09T02:05:22.528Z,1.50
2024-04-09T02:07:50.021Z,1.70
2024-04-09T02:10:17.325Z,1.35
2024-04-09T02:12:45.203Z,1.65
2024-04-09T02:15:14.323Z,1.67
2024-04-09T02:17:42.191Z,1.38
2024-04-09T02:22:39.063Z,1.80
2024-04-09T02:25:06.514Z,1.50
2024-04-09T02:27:34.260Z,1.60
2024-04-09T02:30:04.252Z,1.33
2024-04-09T02:32:33.083Z,1.33
2024-04-09T02:35:02.589Z,1.90
2024-04-09T02:37:29.880Z,1.30
2024-04-09T02:39:57.719Z,1.25
2024-04-09T02:44:53.855Z,1.73
2024-04-09T02:49:49.252Z,1.35
2024-04-09T02:52:16.469Z,1.40
2024-04-09T02:54:43.884Z,1.75
2024-04-09T02:57:11.820Z,1.55
2024-04-09T02:59:40.631Z,1.58
2024-04-09T03:02:08.250Z,1.25
2024-04-09T03:04:35.819Z,1.40
2024-04-09T03:07:05.036Z,1.75
2024-04-09T03:09:33.101Z,1.92
2024-04-09T03:12:02.369Z,1.55
2024-04-09T03:14:30.792Z,1.27
2024-04-09T03:16:58.541Z,1.63
2024-04-09T03:21:52.794Z,1.50
2024-04-09T03:24:20.102Z,1.38
2024-04-09T03:26:47.292Z,1.52
2024-04-09T03:29:14.589Z,1.42
2024-04-09T03:31:41.795Z,1.65
2024-04-09T03:34:09.294Z,1.75
2024-04-09T03:36:37.312Z,1.25
2024-04-09T03:39:05.790Z,1.60
2024-04-09T03:41:33.212Z,1.35
2024-04-09T03:44:01.482Z,1.70
2024-04-09T03:46:28.668Z,1.40
2024-04-09T03:48:58.993Z,1.60
2024-04-09T03:51:26.388Z,1.40
2024-04-09T03:53:53.656Z,1.30
2024-04-09T03:56:20.877Z,1.38
2024-04-09T03:58:51.238Z,1.20
2024-04-09T04:01:19.062Z,2.00
2024-04-09T04:06:16.315Z,1.67
2024-04-09T04:08:44.864Z,1.67
2024-04-09T04:11:14.161Z,1.65
2024-04-09T04:13:42.340Z,1.65
2024-04-09T04:16:11.623Z,2.08
2024-04-09T04:18:44.470Z,1.88
2024-04-09T04:21:14.317Z,1.85
2024-04-09T04:23:42.262Z,1.65
2024-04-09T04:26:20.498Z,1.90
2024-04-09T04:28:49.153Z,1.70
2024-04-09T04:31:21.265Z,1.80
2024-04-09T04:33:51.084Z,2.10
2024-04-09T04:36:19.853Z,1.92
2024-04-09T04:38:48.618Z,2.13
2024-04-09T04:41:16.356Z,1.55
2024-04-09T04:43:43.663Z,1.85
2024-04-09T04:46:11.328Z,1.73
2024-04-09T04:48:39.557Z,1.58
2024-04-09T04:51:07.385Z,1.80
2024-04-09T04:53:34.960Z,1.80
2024-04-09T04:56:02.476Z,2.17
2024-04-09T04:58:29.754Z,1.50
2024-04-09T05:00:57.249Z,1.67
2024-04-09T05:05:52.350Z,1.80
2024-04-09T05:08:20.245Z,1.42
2024-04-09T05:10:47.526Z,1.80
2024-04-09T05:13:14.786Z,2.10
2024-04-09T05:15:42.074Z,1.90
2024-04-09T05:18:10.782Z,2.20
2024-04-09T05:20:40.757Z,2.05
2024-04-09T05:23:08.906Z,1.70
2024-04-09T05:25:36.750Z,1.50
2024-04-09T05:30:31.628Z,2.00
2024-04-09T05:32:59.190Z,2.15
2024-04-09T05:35:27.664Z,1.77
2024-04-09T05:37:55.273Z,1.88
2024-04-09T05:40:23.574Z,1.80
2024-04-09T05:42:50.981Z,1.95
2024-04-09T05:45:23.208Z,1.85
2024-04-09T05:47:50.688Z,1.90
2024-04-09T05:50:18.031Z,1.83
2024-04-09T05:52:45.345Z,1.65
2024-04-09T05:55:13.998Z,1.90
2024-04-09T05:57:42.380Z,1.80
2024-04-09T06:00:16.137Z,1.95
2024-04-09T06:02:46.110Z,2.35
2024-04-09T06:05:13.337Z,1.85
2024-04-09T06:07:40.522Z,1.80
2024-04-09T06:10:08.002Z,2.47
2024-04-09T06:12:35.349Z,1.90
2024-04-09T06:15:02.996Z,2.03
2024-04-09T06:17:30.393Z,1.60
2024-04-09T06:19:58.953Z,2.20
2024-04-09T06:22:26.660Z,1.92
2024-04-09T06:27:22.511Z,1.73
2024-04-09T06:29:49.729Z,1.73
2024-04-09T06:32:17.004Z,1.88
2024-04-09T06:34:44.298Z,2.20
2024-04-09T06:37:11.911Z,1.67
2024-04-09T06:39:39.399Z,1.67
2024-04-09T06:42:06.803Z,1.85
2024-04-09T06:44:34.289Z,1.60
2024-04-09T06:47:01.471Z,1.80
2024-04-09T06:49:28.779Z,1.90
2024-04-09T06:51:55.984Z,1.67
2024-04-09T06:54:23.275Z,1.80
2024-04-09T06:56:50.572Z,1.77
2024-04-09T06:59:18.519Z,1.73
2024-04-09T07:01:46.205Z,1.80
2024-04-09T07:04:14.140Z,1.77
2024-04-09T07:06:41.606Z,1.52
2024-04-09T07:09:08.953Z,1.67
2024-04-09T07:11:36.429Z,1.95
2024-04-09T07:14:04.087Z,1.60
2024-04-09T07:16:31.828Z,1.50
2024-04-09T07:18:59.214Z,1.35
2024-04-09T07:21:26.896Z,1.70
2024-04-09T07:23:54.242Z,1.52
2024-04-09T07:26:21.839Z,1.70
2024-04-09T07:28:50.100Z,1.83
2024-04-09T07:31:17.751Z,1.30
2024-04-09T07:33:48.623Z,1.88
2024-04-09T07:36:16.131Z,1.65
2024-04-09T07:38:43.387Z,1.50
2024-04-09T07:41:10.726Z,1.70
2024-04-09T07:43:40.725Z,1.77
2024-04-09T07:46:08.555Z,1.63
2024-04-09T07:48:36.056Z,1.33
2024-04-09T07:51:04.811Z,1.75
2024-04-09T07:53:32.342Z,2.00
2024-04-09T07:56:04.527Z,1.70
2024-04-09T07:58:32.407Z,1.73
2024-04-09T08:01:00.847Z,1.67
2024-04-09T08:03:29.042Z,2.08
2024-04-09T08:05:56.597Z,1.67
2024-04-09T08:08:24.395Z,1.98
2024-04-09T08:10:51.908Z,1.90
2024-04-09T08:13:19.388Z,1.73
2024-04-09T08:15:46.858Z,1.30
2024-04-09T08:18:14.290Z,1.58
2024-04-09T08:20:43.243Z,1.50
2024-04-09T08:23:10.746Z,1.58
2024-04-09T08:25:38.486Z,1.15
2024-04-09T08:28:05.756Z,1.45
2024-04-09T08:30:34.819Z,1.35
2024-04-09T08:33:02.260Z,2.15
2024-04-09T08:35:29.602Z,1.60
2024-04-09T08:37:56.791Z,1.50
2024-04-09T08:40:24.401Z,1.40
2024-04-09T08:45:27.280Z,1.63
2024-04-09T08:47:57.183Z,1.40
2024-04-09T08:50:26.461Z,1.60
2024-04-09T08:52:59.573Z,1.50
2024-04-09T08:55:27.559Z,1.73
2024-04-09T08:57:55.103Z,1.38
2024-04-09T09:00:22.556Z,1.60
2024-04-09T09:02:49.895Z,1.75
2024-04-09T09:05:22.405Z,1.52
2024-04-09T09:08:06.515Z,1.70
2024-04-09T09:10:35.078Z,1.80
2024-04-09T09:13:06.589Z,1.38
2024-04-09T09:15:34.338Z,1.60
2024-04-09T09:18:02.187Z,1.83
2024-04-09T09:25:25.218Z,1.50
2024-04-09T09:28:09.434Z,1.58
2024-04-09T09:30:38.936Z,1.70
2024-04-09T09:33:15.041Z,1.65
2024-04-09T09:35:49.506Z,1.77
2024-04-09T09:38:21.914Z,1.60
2024-04-09T09:40:50.765Z,1.73
2024-04-09T09:43:19.327Z,1.70
2024-04-09T09:45:47.277Z,1.60
2024-04-09T09:48:18.081Z,1.50
2024-04-09T09:50:45.855Z,1.42
2024-04-09T09:53:13.573Z,1.77
2024-04-09T09:55:43.922Z,1.60
2024-04-09T09:58:17.252Z,1.52
2024-04-09T10:00:47.376Z,1.55
2024-04-09T10:03:16.714Z,1.70
2024-04-09T10:05:43.968Z,1.77
2024-04-09T10:08:18.311Z,1.55
2024-04-09T10:10:49.097Z,1.50
2024-04-09T10:13:19.426Z,1.67
2024-04-09T10:15:48.419Z,2.08
2024-04-09T10:18:48.172Z,1.55
2024-04-09T10:21:29.852Z,1.83
2024-04-09T10:24:00.825Z,1.67
2024-04-09T10:26:30.491Z,1.80
2024-04-09T10:29:06.578Z,1.88
2024-04-09T10:31:43.918Z,1.60
2024-04-09T10:34:11.235Z,1.80
2024-04-09T10:36:38.912Z,1.63
2024-04-09T10:39:08.669Z,1.73
2024-04-09T10:41:36.024Z,1.70
2024-04-09T10:44:03.418Z,1.65
2024-04-09T10:46:30.710Z,1.50
2024-04-09T10:48:57.996Z,1.70
2024-04-09T10:51:25.392Z,1.33
2024-04-09T10:54:02.151Z,1.42
2024-04-09T10:56:29.489Z,1.65
2024-04-09T10:58:56.840Z,1.40
2024-04-09T11:01:24.907Z,1.58
2024-04-09T11:03:52.367Z,1.60
2024-04-09T11:11:15.322Z,1.63
2024-04-09T11:13:44.961Z,1.95
2024-04-09T11:16:19.515Z,1.60
2024-04-09T11:19:25.207Z,1.42
2024-04-09T11:21:53.251Z,1.50
2024-04-09T11:24:20.792Z,1.50
2024-04-09T11:29:24.986Z,1.40
2024-04-09T11:31:53.432Z,2.35
2024-04-09T11:34:25.753Z,1.48
2024-04-09T11:36:54.752Z,2.05
2024-04-09T11:39:25.278Z,1.83
2024-04-09T11:41:54.733Z,2.58
2024-04-09T11:44:23.337Z,1.80
2024-04-09T11:46:51.241Z,1.73
2024-04-09T11:49:18.609Z,2.30
2024-04-09T11:51:46.705Z,1.70
2024-04-09T11:54:14.460Z,2.08
2024-04-09T11:56:41.698Z,2.20
2024-04-09T11:59:09.260Z,1.50
2024-04-09T12:01:36.542Z,2.30
2024-04-09T12:04:04.128Z,2.42
2024-04-09T12:06:31.478Z,2.10
2024-04-09T12:08:58.821Z,2.58
2024-04-09T12:11:27.028Z,2.50
2024-04-09T12:13:54.386Z,2.30
2024-04-09T12:16:22.021Z,2.38
2024-04-09T12:18:49.758Z,2.50
2024-04-09T12:21:17.537Z,2.22
2024-04-09T12:26:11.948Z,2.78
2024-04-09T12:28:39.138Z,2.55
2024-04-09T12:31:06.422Z,2.60
2024-04-09T12:33:33.944Z,2.60
2024-04-09T12:36:01.433Z,2.10
2024-04-09T12:38:28.643Z,1.98
2024-04-09T12:40:55.908Z,2.20
2024-04-09T12:43:23.288Z,2.50
2024-04-09T12:45:51.425Z,1.98
2024-04-09T12:48:22.142Z,2.80
2024-04-09T12:50:50.433Z,2.00
2024-04-09T12:53:17.614Z,2.38
2024-04-09T12:55:47.380Z,2.22
2024-04-09T12:58:16.452Z,1.77
2024-04-09T13:01:01.533Z,2.45
2024-04-09T13:03:31.522Z,2.58
2024-04-09T13:05:59.641Z,1.67
2024-04-09T13:08:27.003Z,1.75
2024-04-09T13:10:54.278Z,2.28
2024-04-09T13:13:21.512Z,2.53
2024-04-09T13:16:48.128Z,2.55
2024-04-09T13:18:36.389Z,1.75
2024-04-09T13:21:04.693Z,2.65
2024-04-09T13:23:31.971Z,1.55
2024-04-09T13:25:59.979Z,2.00
2024-04-09T13:28:27.697Z,2.30
2024-04-09T13:30:55.768Z,2.75
2024-04-09T13:33:23.631Z,2.45
2024-04-09T13:35:52.064Z,2.45
2024-04-09T13:38:19.329Z,3.53
2024-04-09T13:40:46.595Z,2.05
2024-04-09T13:43:13.827Z,2.67
2024-04-09T13:45:41.057Z,2.47
2024-04-09T13:48:08.404Z,2.03
2024-04-09T13:50:36.162Z,1.95
2024-04-09T13:55:31.459Z,3.10
2024-04-09T13:57:58.659Z,2.80
2024-04-09T14:00:27.817Z,2.85
2024-04-09T14:02:56.321Z,3.13
2024-04-09T14:05:24.824Z,2.95
2024-04-09T14:07:52.424Z,2.58
2024-04-09T14:10:19.701Z,2.60
2024-04-09T14:12:46.952Z,2.03
2024-04-09T14:15:16.042Z,2.10
2024-04-09T14:17:54.177Z,2.83
2024-04-09T14:20:22.610Z,2.45
2024-04-09T14:22:50.209Z,3.00
2024-04-09T14:25:20.294Z,2.50
2024-04-09T14:27:48.242Z,2.92
2024-04-09T14:30:17.114Z,2.25
2024-04-09T14:32:44.665Z,2.30
2024-04-09T14:35:12.914Z,3.10
2024-04-09T14:37:40.676Z,1.67
2024-04-09T14:40:08.576Z,2.65
2024-04-09T14:42:37.376Z,2.67
2024-04-09T14:45:05.023Z,2.42
2024-04-09T14:50:01.720Z,2.78
2024-04-09T14:52:30.647Z,3.15
2024-04-09T14:54:58.088Z,2.67
2024-04-09T14:57:25.532Z,2.15
2024-04-09T15:02:20.286Z,2.50
2024-04-09T15:04:47.613Z,2.30
2024-04-09T15:07:14.879Z,2.05
2024-04-09T15:09:43.473Z,2.15
2024-04-09T15:12:11.182Z,2.00
2024-04-09T15:14:38.686Z,1.63
2024-04-09T15:37:12.124Z,2.03
2024-04-09T15:39:39.484Z,2.00
2024-04-09T15:42:06.877Z,2.30
2024-04-09T15:44:36.446Z,2.40
2024-04-09T15:47:04.031Z,2.28
2024-04-09T15:49:31.325Z,1.77
2024-04-09T15:51:58.854Z,1.80
2024-04-09T15:54:27.118Z,1.60
2024-04-09T15:56:54.470Z,1.55
2024-04-09T15:59:21.811Z,1.77
2024-04-09T16:01:49.586Z,1.83
2024-04-09T16:06:46.686Z,1.73
2024-04-09T16:09:17.299Z,1.23
2024-04-09T16:11:45.126Z,2.00
2024-04-09T16:14:12.470Z,1.77
2024-04-09T16:16:42.934Z,1.88
2024-04-09T16:19:12.104Z,1.67
2024-04-09T16:21:39.540Z,1.65
2024-04-09T16:24:06.949Z,2.17
2024-04-09T16:26:34.306Z,1.83
2024-04-09T16:29:03.912Z,1.80
2024-04-09T16:31:31.236Z,1.60
2024-04-09T16:33:58.546Z,1.50
2024-04-09T16:36:26.666Z,1.77
2024-04-09T16:41:21.003Z,1.52
2024-04-09T16:43:48.367Z,1.42
2024-04-09T16:46:15.637Z,1.58
2024-04-09T16:48:42.953Z,1.85
2024-04-09T16:51:10.235Z,1.50
2024-04-09T16:53:37.460Z,1.20
2024-04-09T16:56:04.937Z,1.10
2024-04-09T16:58:32.192Z,0.65
2024-04-09T17:00:59.583Z,0.75
2024-04-09T17:03:26.913Z,0.90
2024-04-09T17:05:54.392Z,0.88
2024-04-09T17:08:22.210Z,0.90
2024-04-09T17:13:28.798Z,0.90
2024-04-09T17:19:44.526Z,0.77
2024-04-09T17:22:11.868Z,1.38
2024-04-09T17:24:40.044Z,0.75
2024-04-09T17:27:07.282Z,0.93
2024-04-09T17:29:35.888Z,0.90
2024-04-09T17:32:03.555Z,0.85
2024-04-09T17:34:30.970Z,0.88
2024-04-09T17:36:58.444Z,0.80
2024-04-09T17:39:25.714Z,0.77
2024-04-09T17:41:53.898Z,0.80
2024-04-09T17:44:21.323Z,0.47
2024-04-09T17:46:48.992Z,1.15
2024-04-09T17:49:16.363Z,0.40
2024-04-09T17:51:43.673Z,0.80
2024-04-09T17:54:11.071Z,0.50
2024-04-09T17:56:38.395Z,0.60
2024-04-09T18:01:34.930Z,0.52
2024-04-09T18:04:04.719Z,0.30
2024-04-09T18:06:32.309Z,0.22
2024-04-09T18:08:59.568Z,0.50
2024-04-09T18:11:27.262Z,0.43
2024-04-09T18:13:54.616Z,0.30
2024-04-09T18:16:21.853Z,0.73
2024-04-09T18:18:51.824Z,0.30
2024-04-09T18:21:22.793Z,0.38
2024-04-09T18:23:50.100Z,0.40
2024-04-09T18:26:21.489Z,0.40
2024-04-09T18:28:49.641Z,0.30
2024-04-09T18:31:17.317Z,0.60
2024-04-09T18:33:46.727Z,0.20
2024-04-09T18:36:14.398Z,0.20
2024-04-09T18:38:41.855Z,0.32
2024-04-09T18:41:11.431Z,0.57
2024-04-09T18:43:39.092Z,0.30
2024-04-09T18:46:07.756Z,0.40
2024-04-09T18:48:35.748Z,0.40
2024-04-09T18:51:08.159Z,0.30
2024-04-09T18:53:37.420Z,1.10
2024-04-09T18:56:05.069Z,0.40
2024-04-09T18:58:32.600Z,0.25
2024-04-09T19:00:59.863Z,0.38
2024-04-09T19:03:27.255Z,0.40
2024-04-09T19:05:54.508Z,0.40
2024-04-09T19:08:21.925Z,0.55
2024-04-09T19:10:49.220Z,0.40
2024-04-09T19:13:16.413Z,0.30
2024-04-09T19:15:43.616Z,0.55
2024-04-09T19:18:10.874Z,0.30
2024-04-09T19:20:38.110Z,0.60
2024-04-09T19:23:05.358Z,0.60
2024-04-09T19:25:32.647Z,0.52
2024-04-09T19:28:00.073Z,0.40
2024-04-09T19:30:27.269Z,0.38
2024-04-09T19:32:54.688Z,0.43
2024-04-09T19:35:22.015Z,0.30
2024-04-09T19:37:49.325Z,0.50
2024-04-09T19:40:16.706Z,0.17
2024-04-09T19:42:44.201Z,0.20
2024-04-09T19:45:12.159Z,0.30
2024-04-09T19:47:39.698Z,0.30
2024-04-09T19:50:07.747Z,0.20
2024-04-09T19:55:03.142Z,0.95
2024-04-09T19:59:58.514Z,0.57
2024-04-09T20:02:27.335Z,0.20
2024-04-09T20:04:55.220Z,0.77
2024-04-09T20:07:22.984Z,0.52
2024-04-09T20:09:50.601Z,0.30
2024-04-09T20:12:21.482Z,0.40
2024-04-09T20:14:49.851Z,0.90
2024-04-09T20:17:17.395Z,0.35
2024-04-09T20:19:45.808Z,0.30
2024-04-09T20:22:13.200Z,0.38
2024-04-09T20:24:41.086Z,0.30
2024-04-09T20:29:35.447Z,0.30
2024-04-09T20:32:03.723Z,0.70
2024-04-09T20:34:31.195Z,0.55
2024-04-09T20:36:59.206Z,0.30
2024-04-09T20:39:26.668Z,0.50
2024-04-09T20:41:54.361Z,0.70
2024-04-09T20:44:21.810Z,0.43
2024-04-09T20:46:49.616Z,0.73
2024-04-09T20:49:17.207Z,0.60
2024-04-09T20:51:44.572Z,0.75
2024-04-09T20:54:11.806Z,0.95
2024-04-09T20:56:39.210Z,0.55
2024-04-09T20:59:06.547Z,0.60
2024-04-09T21:01:35.418Z,0.60
2024-04-09T21:04:03.692Z,0.77
2024-04-09T21:06:31.083Z,0.60
2024-04-09T21:08:58.280Z,0.60
2024-04-09T21:11:25.577Z,0.63
2024-04-09T21:13:54.103Z,0.70
2024-04-09T21:16:22.091Z,0.77
2024-04-09T21:18:49.559Z,0.85
2024-04-09T21:21:17.122Z,0.63
2024-04-09T21:23:44.376Z,1.13
2024-04-09T21:26:11.645Z,1.00
2024-04-09T21:28:38.870Z,1.33
2024-04-09T21:31:06.077Z,0.90
2024-04-09T21:33:33.450Z,1.38
2024-04-09T21:36:00.686Z,1.15
2024-04-09T21:38:28.105Z,1.40
2024-04-09T21:41:08.513Z,1.15
2024-04-09T21:43:36.498Z,1.10
2024-04-09T21:46:03.843Z,1.00
2024-04-09T21:48:31.473Z,1.63
2024-04-09T21:50:58.826Z,1.30
2024-04-09T21:53:26.481Z,1.48
2024-04-09T21:55:53.997Z,1.25
2024-04-09T21:58:21.504Z,1.02
2024-04-09T22:00:53.230Z,1.77
2024-04-09T22:03:21.108Z,1.30
2024-04-09T22:05:51.149Z,1.35
2024-04-09T22:08:18.452Z,1.23
2024-04-09T22:10:47.112Z,1.00
2024-04-09T22:13:14.480Z,0.98
2024-04-09T22:15:41.763Z,1.70
2024-04-09T22:18:09.117Z,1.48
2024-04-09T22:20:38.490Z,1.58
2024-04-09T22:23:11.625Z,1.63
2024-04-09T22:25:39.039Z,1.77
2024-04-09T22:28:06.481Z,1.63
2024-04-09T22:30:33.701Z,1.30
2024-04-09T22:33:01.085Z,1.55
2024-04-09T22:35:28.626Z,1.30
2024-04-09T22:37:57.407Z,1.38
2024-04-09T22:40:24.705Z,1.55
2024-04-09T22:42:51.991Z,2.10
2024-04-09T22:45:19.240Z,1.13
2024-04-09T22:47:46.597Z,1.35
2024-04-09T22:50:13.997Z,1.35
2024-04-09T22:52:41.266Z,1.10
2024-04-09T22:55:09.492Z,1.50
2024-04-09T22:57:36.828Z,1.38
2024-04-09T23:00:06.820Z,1.42
2024-04-09T23:02:34.434Z,1.65
2024-04-09T23:05:01.762Z,1.58
2024-04-09T23:07:29.003Z,2.15
2024-04-09T23:09:56.774Z,1.30
2024-04-09T23:12:28.260Z,1.30
2024-04-09T23:14:56.254Z,1.65
2024-04-09T23:17:23.611Z,1.15
2024-04-09T23:19:51.019Z,1.15
2024-04-09T23:22:18.693Z,1.67
2024-04-09T23:24:46.523Z,1.15
2024-04-09T23:27:13.766Z,1.55
2024-04-09T23:29:42.227Z,1.30
2024-04-09T23:32:10.171Z,1.52
2024-04-09T23:34:37.429Z,1.73
2024-04-09T23:37:04.777Z,1.40
2024-04-09T23:39:32.043Z,1.45
2024-04-09T23:42:05.881Z,1.40
2024-04-09T23:44:34.274Z,1.92
2024-04-09T23:47:03.608Z,2.03
2024-04-09T23:49:31.218Z,1.17
2024-04-09T23:51:58.558Z,1.38
2024-04-09T23:54:25.978Z,1.05
2024-04-09T23:56:53.916Z,1.20
2024-04-09T23:59:21.290Z,1.20
